Time;durP1;ratioP1;P1;durP2;ratioP2;P2;SDS_P1;SDS_P2;PMS_P1;PMS_P2;Temp;Humidity;BMP_temperature;BMP_pressure;BME280_temperature;BME280_humidity;BME280_pressure;Samples;Min_cycle;Max_cycle;Signal;HPM_P1;HPM_P2
2020/08/14 00:01:54;;;;;;;0.5;0.5;;;;;;;;;;;;;
2020/08/14 00:04:19;;;;;;;0.5;0.4;;;;;;;;;;;;;
2020/08/14 00:06:47;;;;;;;1.6;0.6;;;;;;;;;;;;;
2020/08/14 00:09:12;;;;;;;0.7;0.4;;;;;;;;;;;;;
2020/08/14 00:11:38;;;;;;;1.5;0.8;;;;;;;;;;;;;
2020/08/14 00:14:02;;;;;;;0.8;0.7;;;;;;;;;;;;;
2020/08/14 00:16:29;;;;;;;1.2;0.7;;;;;;;;;;;;;
2020/08/14 00:18:54;;;;;;;1;0.5;;;;;;;;;;;;;
2020/08/14 00:21:20;;;;;;;2.1;0.8;;;;;;;;;;;;;
2020/08/14 00:23:46;;;;;;;1;0.5;;;;;;;;;;;;;
2020/08/14 00:26:11;;;;;;;0.6;0.3;;;;;;;;;;;;;
2020/08/14 00:28:36;;;;;;;0.5;0.4;;;;;;;;;;;;;
2020/08/14 00:31:01;;;;;;;0.7;0.5;;;;;;;;;;;;;
2020/08/14 00:33:26;;;;;;;1.5;0.6;;;;;;;;;;;;;
2020/08/14 00:35:51;;;;;;;0.5;0.4;;;;;;;;;;;;;
2020/08/14 00:38:16;;;;;;;0.5;0.5;;;;;;;;;;;;;
2020/08/14 00:40:46;;;;;;;1.8;0.9;;;;;;;;;;;;;
2020/08/14 00:43:12;;;;;;;0.4;0.4;;;;;;;;;;;;;
2020/08/14 00:45:37;;;;;;;0.4;0.3;;;;;;;;;;;;;
2020/08/14 00:48:02;;;;;;;0.8;0.5;;;;;;;;;;;;;
2020/08/14 00:50:27;;;;;;;0.4;0.4;;;;;;;;;;;;;
2020/08/14 00:52:52;;;;;;;0.5;0.2;;;;;;;;;;;;;
2020/08/14 00:55:17;;;;;;;0.4;0.4;;;;;;;;;;;;;
2020/08/14 00:57:43;;;;;;;1;0.5;;;;;;;;;;;;;
2020/08/14 01:00:08;;;;;;;0.3;0.3;;;;;;;;;;;;;
2020/08/14 01:02:33;;;;;;;0.9;0.6;;;;;;;;;;;;;
2020/08/14 01:04:58;;;;;;;0.8;0.5;;;;;;;;;;;;;
2020/08/14 01:07:24;;;;;;;1.3;0.6;;;;;;;;;;;;;
2020/08/14 01:09:49;;;;;;;1;0.4;;;;;;;;;;;;;
2020/08/14 01:12:14;;;;;;;1.4;0.4;;;;;;;;;;;;;
2020/08/14 01:14:39;;;;;;;1;0.4;;;;;;;;;;;;;
2020/08/14 01:17:04;;;;;;;0.4;0.3;;;;;;;;;;;;;
2020/08/14 01:19:30;;;;;;;0.9;0.4;;;;;;;;;;;;;
2020/08/14 01:21:55;;;;;;;1.8;0.8;;;;;;;;;;;;;
2020/08/14 01:24:21;;;;;;;1.2;0.3;;;;;;;;;;;;;
2020/08/14 01:26:46;;;;;;;0.3;0.3;;;;;;;;;;;;;
2020/08/14 01:29:13;;;;;;;1.1;0.4;;;;;;;;;;;;;
2020/08/14 01:31:38;;;;;;;0.6;0.5;;;;;;;;;;;;;
2020/08/14 01:34:05;;;;;;;0.4;0.3;;;;;;;;;;;;;
2020/08/14 01:36:30;;;;;;;0.7;0.3;;;;;;;;;;;;;
2020/08/14 01:38:55;;;;;;;1.3;0.6;;;;;;;;;;;;;
2020/08/14 01:41:21;;;;;;;0.5;0.4;;;;;;;;;;;;;
2020/08/14 01:43:47;;;;;;;0.4;0.4;;;;;;;;;;;;;
2020/08/14 01:46:12;;;;;;;0.5;0.3;;;;;;;;;;;;;
2020/08/14 01:48:39;;;;;;;0.5;0.4;;;;;;;;;;;;;
2020/08/14 01:51:04;;;;;;;0.6;0.5;;;;;;;;;;;;;
2020/08/14 01:53:29;;;;;;;1.4;0.7;;;;;;;;;;;;;
2020/08/14 01:55:54;;;;;;;0.4;0.4;;;;;;;;;;;;;
2020/08/14 01:58:21;;;;;;;0.4;0.4;;;;;;;;;;;;;
2020/08/14 02:00:46;;;;;;;0.6;0.4;;;;;;;;;;;;;
2020/08/14 02:03:12;;;;;;;0.4;0.2;;;;;;;;;;;;;
2020/08/14 02:05:37;;;;;;;1;0.7;;;;;;;;;;;;;
2020/08/14 02:08:05;;;;;;;0.4;0.3;;;;;;;;;;;;;
2020/08/14 02:10:28;;;;;;;0.5;0.5;;;;;;;;;;;;;
2020/08/14 02:12:54;;;;;;;0.8;0.5;;;;;;;;;;;;;
2020/08/14 02:15:19;;;;;;;0.7;0.6;;;;;;;;;;;;;
2020/08/14 02:17:46;;;;;;;0.5;0.4;;;;;;;;;;;;;
2020/08/14 02:20:11;;;;;;;0.9;0.5;;;;;;;;;;;;;
2020/08/14 02:22:37;;;;;;;0.4;0.3;;;;;;;;;;;;;
2020/08/14 02:25:02;;;;;;;0.6;0.4;;;;;;;;;;;;;
2020/08/14 02:27:28;;;;;;;2.2;0.7;;;;;;;;;;;;;
2020/08/14 02:29:53;;;;;;;0.5;0.4;;;;;;;;;;;;;
2020/08/14 02:32:19;;;;;;;0.6;0.4;;;;;;;;;;;;;
2020/08/14 02:34:44;;;;;;;1.8;0.7;;;;;;;;;;;;;
2020/08/14 02:37:11;;;;;;;0.8;0.5;;;;;;;;;;;;;
2020/08/14 02:39:36;;;;;;;0.9;0.5;;;;;;;;;;;;;
2020/08/14 02:42:02;;;;;;;0.4;0.4;;;;;;;;;;;;;
2020/08/14 02:44:27;;;;;;;0.3;0.3;;;;;;;;;;;;;
2020/08/14 02:46:54;;;;;;;0.6;0.5;;;;;;;;;;;;;
2020/08/14 02:49:18;;;;;;;0.9;0.5;;;;;;;;;;;;;
2020/08/14 02:51:44;;;;;;;0.9;0.7;;;;;;;;;;;;;
2020/08/14 02:54:09;;;;;;;0.5;0.3;;;;;;;;;;;;;
2020/08/14 02:56:35;;;;;;;0.6;0.4;;;;;;;;;;;;;
2020/08/14 02:59:00;;;;;;;0.3;0.3;;;;;;;;;;;;;
2020/08/14 03:01:27;;;;;;;0.6;0.5;;;;;;;;;;;;;
2020/08/14 03:03:52;;;;;;;1;0.4;;;;;;;;;;;;;
2020/08/14 03:06:18;;;;;;;0.9;0.7;;;;;;;;;;;;;
2020/08/14 03:08:43;;;;;;;1.4;0.7;;;;;;;;;;;;;
2020/08/14 03:11:11;;;;;;;1.4;0.6;;;;;;;;;;;;;
2020/08/14 03:13:36;;;;;;;0.9;0.5;;;;;;;;;;;;;
2020/08/14 03:16:01;;;;;;;1.4;0.8;;;;;;;;;;;;;
2020/08/14 03:18:26;;;;;;;1.2;0.6;;;;;;;;;;;;;
2020/08/14 03:20:52;;;;;;;0.7;0.4;;;;;;;;;;;;;
2020/08/14 03:23:17;;;;;;;1;0.7;;;;;;;;;;;;;
2020/08/14 03:25:43;;;;;;;2.3;0.4;;;;;;;;;;;;;
2020/08/14 03:28:08;;;;;;;1.6;0.6;;;;;;;;;;;;;
2020/08/14 03:30:36;;;;;;;0.7;0.5;;;;;;;;;;;;;
2020/08/14 03:33:01;;;;;;;1.1;0.7;;;;;;;;;;;;;
2020/08/14 03:35:27;;;;;;;0.7;0.4;;;;;;;;;;;;;
2020/08/14 03:37:52;;;;;;;0.5;0.4;;;;;;;;;;;;;
2020/08/14 03:40:18;;;;;;;0.7;0.5;;;;;;;;;;;;;
2020/08/14 03:42:42;;;;;;;0.9;0.5;;;;;;;;;;;;;
2020/08/14 03:45:08;;;;;;;0.4;0.4;;;;;;;;;;;;;
2020/08/14 03:47:34;;;;;;;1.2;0.6;;;;;;;;;;;;;
2020/08/14 03:49:59;;;;;;;0.4;0.4;;;;;;;;;;;;;
2020/08/14 03:52:25;;;;;;;0.7;0.5;;;;;;;;;;;;;
2020/08/14 03:54:50;;;;;;;0.4;0.4;;;;;;;;;;;;;
2020/08/14 03:57:15;;;;;;;0.3;0.3;;;;;;;;;;;;;
2020/08/14 03:59:40;;;;;;;0.4;0.4;;;;;;;;;;;;;
2020/08/14 04:02:30;;;;;;;1.5;0.6;;;;;;;16.04;89.94824;938.6476;;;;
2020/08/14 04:04:56;;;;;;;0.7;0.3;;;;;;;16.09;90.0752;938.5948;;;;
2020/08/14 04:07:21;;;;;;;0.5;0.4;;;;;;;15.88;90.13477;938.6097;;;;
2020/08/14 04:09:46;;;;;;;0.4;0.4;;;;;;;15.63;91.35352;938.5429;;;;
2020/08/14 04:12:15;;;;;;;1;0.6;;;;;;;15.7;91.32422;938.588;;;;
2020/08/14 04:14:40;;;;;;;0.4;0.2;;;;;;;15.78;91.12012;938.5405;;;;
2020/08/14 04:17:06;;;;;;;1.1;0.6;;;;;;;15.88;90.86328;938.5808;;;;
2020/08/14 04:19:34;;;;;;;0.5;0.5;;;;;;;15.95;90.36914;938.4916;;;;
2020/08/14 04:21:59;;;;;;;0.4;0.3;;;;;;;16.04;89.9834;938.5496;;;;
2020/08/14 04:24:25;;;;;;;0.3;0.3;;;;;;;16;90.28613;938.5433;;;;
2020/08/14 04:26:50;;;;;;;0.6;0.4;;;;;;;16.04;90.44531;938.5793;;;;
2020/08/14 04:29:15;;;;;;;0.9;0.5;;;;;;;16.1;90.31836;938.5844;;;;
2020/08/14 04:31:40;;;;;;;0.2;0.2;;;;;;;16.14;89.69141;938.5244;;;;
2020/08/14 04:34:05;;;;;;;0.9;0.5;;;;;;;16.04;90.12012;938.6397;;;;
2020/08/14 04:36:30;;;;;;;1;0.6;;;;;;;16.08;90.4209;938.517;;;;
2020/08/14 04:38:56;;;;;;;0.7;0.3;;;;;;;16.14;89.89941;938.6111;;;;
2020/08/14 04:41:21;;;;;;;1.5;0.7;;;;;;;16.08;90.2334;938.6328;;;;
2020/08/14 04:43:46;;;;;;;0.6;0.5;;;;;;;16.06;90.71582;938.6121;;;;
2020/08/14 04:46:11;;;;;;;0.5;0.3;;;;;;;16.19;90.52148;938.5906;;;;
2020/08/14 04:48:39;;;;;;;0.6;0.5;;;;;;;16.2;89.70215;938.5783;;;;
2020/08/14 04:51:04;;;;;;;1.7;0.6;;;;;;;16.21;89.58887;938.5726;;;;
2020/08/14 04:53:30;;;;;;;1;0.5;;;;;;;16.29;89.65137;938.6347;;;;
2020/08/14 04:55:55;;;;;;;0.4;0.4;;;;;;;16.25;89.65723;938.6487;;;;
2020/08/14 04:58:23;;;;;;;1.3;0.5;;;;;;;16.4;90.125;938.6284;;;;
2020/08/14 05:00:52;;;;;;;0.8;0.5;;;;;;;16.46;89.53809;938.644;;;;
2020/08/14 05:03:18;;;;;;;1;0.5;;;;;;;16.52;89.35254;938.5902;;;;
2020/08/14 05:05:47;;;;;;;0.4;0.3;;;;;;;16.58;88.94824;938.5918;;;;
2020/08/14 05:08:15;;;;;;;0.9;0.6;;;;;;;16.54;88.43164;938.5747;;;;
2020/08/14 05:10:47;;;;;;;0.4;0.3;;;;;;;16.62;89.03711;938.6166;;;;
2020/08/14 05:13:18;;;;;;;5.9;1;;;;;;;16.65;89.21582;938.6774;;;;
2020/08/14 05:15:54;;;;;;;1.2;0.5;;;;;;;16.7;89.04199;938.6472;;;;
2020/08/14 05:18:19;;;;;;;2;0.6;;;;;;;16.74;89.18945;938.5976;;;;
2020/08/14 05:20:46;;;;;;;4.2;0.6;;;;;;;16.77;89.21875;938.5923;;;;
2020/08/14 05:23:11;;;;;;;0.6;0.5;;;;;;;16.68;89.7793;938.5324;;;;
2020/08/14 05:25:36;;;;;;;0.5;0.4;;;;;;;16.59;90.02734;938.6013;;;;
2020/08/14 05:28:02;;;;;;;2.7;0.7;;;;;;;16.68;89.91602;938.5381;;;;
2020/08/14 05:30:30;;;;;;;0.4;0.4;;;;;;;16.78;90.07715;938.5432;;;;
2020/08/14 05:32:55;;;;;;;0.8;0.6;;;;;;;16.86;89.64063;938.5503;;;;
2020/08/14 05:35:20;;;;;;;0.8;0.5;;;;;;;16.92;90.38379;938.5245;;;;
2020/08/14 05:37:46;;;;;;;1;0.5;;;;;;;16.97;89.81348;938.5424;;;;
2020/08/14 05:40:11;;;;;;;3.4;0.7;;;;;;;17.08;89.88379;938.4711;;;;
2020/08/14 05:42:37;;;;;;;4.8;0.9;;;;;;;17.17;89.64941;938.5073;;;;
2020/08/14 05:45:03;;;;;;;0.8;0.6;;;;;;;17.2;89.05176;938.5334;;;;
2020/08/14 05:47:28;;;;;;;0.8;0.5;;;;;;;17.25;89.06055;938.533;;;;
2020/08/14 05:49:53;;;;;;;0.9;0.6;;;;;;;17.32;89.46777;938.5424;;;;
2020/08/14 05:52:19;;;;;;;1;0.5;;;;;;;17.32;88.71582;938.5641;;;;
2020/08/14 05:54:45;;;;;;;0.8;0.5;;;;;;;17.48;88.97852;938.5368;;;;
2020/08/14 05:57:10;;;;;;;1.3;0.5;;;;;;;17.65;88.34082;938.5391;;;;
2020/08/14 05:59:36;;;;;;;0.5;0.3;;;;;;;17.83;87.12109;938.5575;;;;
2020/08/14 06:02:01;;;;;;;1.7;0.8;;;;;;;17.91;86.7793;938.5447;;;;
2020/08/14 06:04:30;;;;;;;0.6;0.5;;;;;;;18.02;85.88281;938.5967;;;;
2020/08/14 06:06:55;;;;;;;0.4;0.4;;;;;;;18.13;86.53125;938.5457;;;;
2020/08/14 06:09:21;;;;;;;0.8;0.5;;;;;;;17.99;85.83105;938.5706;;;;
2020/08/14 06:11:55;;;;;;;2.8;1;;;;;;;17.92;85.94434;938.5686;;;;
2020/08/14 06:14:24;;;;;;;0.8;0.7;;;;;;;17.71;87.15625;938.5279;;;;
2020/08/14 06:16:49;;;;;;;0.7;0.6;;;;;;;17.78;87.42773;938.5338;;;;
2020/08/14 06:19:15;;;;;;;5.3;1.1;;;;;;;17.78;85.73242;938.5869;;;;
2020/08/14 06:21:42;;;;;;;1.2;0.9;;;;;;;17.74;86.32715;938.532;;;;
2020/08/14 06:24:09;;;;;;;1.2;0.9;;;;;;;17.91;86.79297;938.5325;;;;
2020/08/14 06:26:34;;;;;;;6;1;;;;;;;18;86.62109;938.4811;;;;
2020/08/14 06:28:59;;;;;;;1;0.7;;;;;;;18.12;86.87988;938.4692;;;;
2020/08/14 06:31:24;;;;;;;1;0.7;;;;;;;18.05;86.93359;938.5633;;;;
2020/08/14 06:33:50;;;;;;;8.1;0.9;;;;;;;17.96;87.32227;938.4512;;;;
2020/08/14 06:36:15;;;;;;;1.7;0.9;;;;;;;18.02;86.8584;938.5363;;;;
2020/08/14 06:38:41;;;;;;;0.8;0.4;;;;;;;18.05;87.38672;938.5173;;;;
2020/08/14 06:41:07;;;;;;;1.6;0.8;;;;;;;18.16;86.48047;938.4822;;;;
2020/08/14 06:43:32;;;;;;;0.5;0.4;;;;;;;18.3;84.75195;938.5483;;;;
2020/08/14 06:45:57;;;;;;;1.8;0.9;;;;;;;18.36;84.30957;938.5253;;;;
2020/08/14 06:48:22;;;;;;;5.1;1;;;;;;;18.6;86.60059;938.4603;;;;
2020/08/14 06:50:49;;;;;;;0.9;0.6;;;;;;;18.82;84.28125;938.4222;;;;
2020/08/14 06:53:14;;;;;;;2.5;0.4;;;;;;;18.93;82.89648;938.4562;;;;
2020/08/14 06:55:39;;;;;;;0.8;0.5;;;;;;;19.09;83.57715;938.503;;;;
2020/08/14 06:58:17;;;;;;;2;0.7;;;;;;;19.13;82.03613;938.5101;;;;
2020/08/14 07:00:42;;;;;;;0.8;0.5;;;;;;;19.16;82.26172;938.4764;;;;
2020/08/14 07:03:07;;;;;;;4.3;0.7;;;;;;;19.15;81.94727;938.4942;;;;
2020/08/14 07:05:36;;;;;;;1.4;0.7;;;;;;;19.18;83.08105;938.4922;;;;
2020/08/14 07:08:01;;;;;;;0.7;0.5;;;;;;;19.13;82.46875;938.4543;;;;
2020/08/14 07:10:26;;;;;;;0.9;0.6;;;;;;;19.16;82.33203;938.4748;;;;
2020/08/14 07:12:51;;;;;;;0.8;0.6;;;;;;;18.99;80.57715;938.4841;;;;
2020/08/14 07:15:16;;;;;;;0.7;0.6;;;;;;;19.07;82.2002;938.4767;;;;
2020/08/14 07:17:41;;;;;;;1.5;1;;;;;;;19.27;82.12109;938.5071;;;;
2020/08/14 07:20:10;;;;;;;1.2;0.6;;;;;;;19.39;79.83594;938.4277;;;;
2020/08/14 07:22:36;;;;;;;0.9;0.7;;;;;;;19.56;83.53809;938.4183;;;;
2020/08/14 07:25:01;;;;;;;1.8;0.7;;;;;;;19.8;80.02539;938.4417;;;;
2020/08/14 07:27:26;;;;;;;0.8;0.6;;;;;;;20.17;76.56836;938.4163;;;;
2020/08/14 07:29:52;;;;;;;2.3;0.7;;;;;;;20.32;76.01074;938.3978;;;;
2020/08/14 07:32:17;;;;;;;2.8;1;;;;;;;20.44;77.07031;938.3417;;;;
2020/08/14 07:34:45;;;;;;;1.3;0.6;;;;;;;20.73;74.59668;938.4396;;;;
2020/08/14 07:37:11;;;;;;;0.7;0.5;;;;;;;20.93;74.17383;938.3206;;;;
2020/08/14 07:39:38;;;;;;;1.4;0.3;;;;;;;21.11;72.85938;938.3251;;;;
2020/08/14 07:42:03;;;;;;;0.3;0.3;;;;;;;21.18;73.53809;938.3781;;;;
2020/08/14 07:44:29;;;;;;;8.5;0.4;;;;;;;21.65;74.64453;938.3495;;;;
2020/08/14 07:46:54;;;;;;;2.9;0.8;;;;;;;21.63;73.62402;938.3672;;;;
2020/08/14 07:49:20;;;;;;;1;0.6;;;;;;;21.71;72.92285;938.3571;;;;
2020/08/14 07:51:44;;;;;;;0.7;0.4;;;;;;;21.68;73.1748;938.3356;;;;
2020/08/14 07:54:10;;;;;;;0.5;0.3;;;;;;;21.58;70.83008;938.3304;;;;
2020/08/14 07:56:35;;;;;;;0.2;0.2;;;;;;;21.46;73.19824;938.3553;;;;
2020/08/14 07:59:00;;;;;;;4.1;1.4;;;;;;;21.66;72.71582;938.325;;;;
2020/08/14 08:01:25;;;;;;;0.4;0.4;;;;;;;21.52;71.26465;938.2917;;;;
2020/08/14 08:03:54;;;;;;;0.8;0.6;;;;;;;21.43;73.54492;938.2366;;;;
2020/08/14 08:06:19;;;;;;;0.6;0.4;;;;;;;21.61;73.39844;938.2539;;;;
2020/08/14 08:08:44;;;;;;;1;0.8;;;;;;;21.59;74.50684;938.2605;;;;
2020/08/14 08:11:14;;;;;;;0.6;0.4;;;;;;;21.7;74.76074;938.2836;;;;
2020/08/14 08:13:39;;;;;;;0.6;0.5;;;;;;;21.74;71.88574;938.2889;;;;
2020/08/14 08:16:09;;;;;;;0.6;0.4;;;;;;;21.75;72.75391;938.1799;;;;
2020/08/14 08:18:35;;;;;;;3.6;0.8;;;;;;;21.77;74.74805;938.2473;;;;
2020/08/14 08:20:59;;;;;;;0.3;0.2;;;;;;;21.97;72.60352;938.27;;;;
2020/08/14 08:23:25;;;;;;;1;0.6;;;;;;;21.98;72.46289;938.256;;;;
2020/08/14 08:25:53;;;;;;;0.7;0.6;;;;;;;21.85;74.36328;938.2214;;;;
2020/08/14 08:28:18;;;;;;;1.2;0.8;;;;;;;21.9;75.68457;938.2139;;;;
2020/08/14 08:30:48;;;;;;;0.3;0.2;;;;;;;21.93;75.91016;938.2999;;;;
2020/08/14 08:33:19;;;;;;;0.5;0.2;;;;;;;21.64;72.78223;938.2776;;;;
2020/08/14 08:35:44;;;;;;;1;0.5;;;;;;;21.37;75.10352;938.3084;;;;
2020/08/14 08:38:09;;;;;;;0.5;0.4;;;;;;;21.34;74.88574;938.27;;;;
2020/08/14 08:40:35;;;;;;;0.4;0.3;;;;;;;21.35;74.99414;938.3083;;;;
2020/08/14 08:43:02;;;;;;;0.5;0.4;;;;;;;21.42;74.04492;938.3231;;;;
2020/08/14 08:45:38;;;;;;;1.1;0.7;;;;;;;21.43;75.45117;938.2844;;;;
2020/08/14 08:48:03;;;;;;;0.5;0.5;;;;;;;21.37;75.81738;938.2792;;;;
2020/08/14 08:50:36;;;;;;;12.2;0.4;;;;;;;21.34;75.10938;938.252;;;;
2020/08/14 08:53:01;;;;;;;1.6;0.9;;;;;;;21.33;75.77539;938.2134;;;;
2020/08/14 08:55:29;;;;;;;0.6;0.5;;;;;;;21.41;75.53027;938.3096;;;;
2020/08/14 08:57:54;;;;;;;0.5;0.4;;;;;;;21.52;76.09863;938.3495;;;;
2020/08/14 09:00:39;;;;;;;1;0.6;;;;;;;21.6;74.56641;938.3445;;;;
2020/08/14 09:03:06;;;;;;;0.3;0.2;;;;;;;21.61;73.66797;938.3796;;;;
2020/08/14 09:05:34;;;;;;;0.3;0.3;;;;;;;21.7;74.89941;938.3551;;;;
2020/08/14 09:07:59;;;;;;;0.5;0.4;;;;;;;21.81;74.79199;938.3699;;;;
2020/08/14 09:10:35;;;;;;;4;0.7;;;;;;;21.86;74.95215;938.4034;;;;
2020/08/14 09:13:00;;;;;;;5.6;0.5;;;;;;;21.83;74.77148;938.3889;;;;
2020/08/14 09:15:37;;;;;;;1.4;0.7;;;;;;;21.85;75.98047;938.4475;;;;
2020/08/14 09:18:03;;;;;;;0.2;0.2;;;;;;;21.99;75.21973;938.4086;;;;
2020/08/14 09:20:31;;;;;;;0.2;0.2;;;;;;;21.93;75.44336;938.4093;;;;
2020/08/14 09:22:58;;;;;;;0.9;0.8;;;;;;;21.94;74.29785;938.4308;;;;
2020/08/14 09:25:28;;;;;;;12.2;1;;;;;;;22.1;74.5459;938.3642;;;;
2020/08/14 09:27:54;;;;;;;0.3;0.3;;;;;;;22.35;74.24707;938.3923;;;;
2020/08/14 09:30:34;;;;;;;0.9;0.7;;;;;;;22.36;73.31055;938.4008;;;;
2020/08/14 09:32:59;;;;;;;0.8;0.7;;;;;;;22.48;74.83301;938.3309;;;;
2020/08/14 09:35:24;;;;;;;0.8;0.4;;;;;;;22.59;71.87012;938.4058;;;;
2020/08/14 09:37:49;;;;;;;1.1;0.6;;;;;;;22.49;70.20996;938.3689;;;;
2020/08/14 09:40:18;;;;;;;0.5;0.4;;;;;;;22.43;70.28516;938.3822;;;;
2020/08/14 09:42:43;;;;;;;0.6;0.5;;;;;;;22.46;70.31152;938.3633;;;;
2020/08/14 09:45:12;;;;;;;0.4;0.4;;;;;;;22.83;72.64941;938.3774;;;;
2020/08/14 09:47:38;;;;;;;1.1;0.5;;;;;;;23.14;73.00488;938.2739;;;;
2020/08/14 09:50:04;;;;;;;0.9;0.5;;;;;;;23.22;69.79785;938.3137;;;;
2020/08/14 09:52:29;;;;;;;0.7;0.6;;;;;;;23.28;71.75781;938.3103;;;;
2020/08/14 09:54:54;;;;;;;0.5;0.4;;;;;;;23.24;72.45898;938.2939;;;;
2020/08/14 09:57:19;;;;;;;2.3;0.6;;;;;;;23.47;70.77832;938.2949;;;;
2020/08/14 09:59:44;;;;;;;0.9;0.4;;;;;;;23.53;69.42285;938.2241;;;;
2020/08/14 10:02:09;;;;;;;0;0;;;;;;;23.74;67.14941;938.2333;;;;
2020/08/14 10:04:35;;;;;;;0.6;0.5;;;;;;;24.01;66.4834;938.2141;;;;
2020/08/14 10:07:01;;;;;;;4.4;1;;;;;;;23.99;63.07813;938.1822;;;;
2020/08/14 10:09:26;;;;;;;1;0.6;;;;;;;23.87;67.82715;938.2078;;;;
2020/08/14 10:11:51;;;;;;;0.7;0.6;;;;;;;23.84;68;938.2302;;;;
2020/08/14 10:14:16;;;;;;;0.9;0.6;;;;;;;23.92;67.20117;938.2689;;;;
2020/08/14 10:16:44;;;;;;;2.4;0.4;;;;;;;24.09;69.0293;938.2911;;;;
2020/08/14 10:19:09;;;;;;;9.3;0.9;;;;;;;24.43;68.67969;938.2847;;;;
2020/08/14 10:21:34;;;;;;;1.9;0.6;;;;;;;24.35;67.35938;938.2472;;;;
2020/08/14 10:23:59;;;;;;;0.3;0.3;;;;;;;24.26;68.35938;938.2526;;;;
2020/08/14 10:26:25;;;;;;;1.7;0.2;;;;;;;24.64;65.55176;938.1838;;;;
2020/08/14 10:28:50;;;;;;;0.2;0.2;;;;;;;24.5;67.45313;938.188;;;;
2020/08/14 10:31:15;;;;;;;1;0.8;;;;;;;24.67;66.08789;938.0876;;;;
2020/08/14 10:33:40;;;;;;;0.4;0.3;;;;;;;24.85;65.9834;938.1858;;;;
2020/08/14 10:36:09;;;;;;;1.7;0.7;;;;;;;24.77;67.09375;938.1442;;;;
2020/08/14 10:38:34;;;;;;;0.3;0.3;;;;;;;25.03;64.47656;938.1096;;;;
2020/08/14 10:41:17;;;;;;;0.7;0.4;;;;;;;25.25;63.48145;938.0717;;;;
2020/08/14 10:43:50;;;;;;;0.3;0.3;;;;;;;25.54;62.69531;938.0253;;;;
2020/08/14 10:46:19;;;;;;;2.3;0.6;;;;;;;25.64;64.02148;938.0101;;;;
2020/08/14 10:48:47;;;;;;;0.5;0.5;;;;;;;25.16;63.91699;937.9883;;;;
2020/08/14 10:51:20;;;;;;;0.2;0.2;;;;;;;25.22;62.61621;937.9221;;;;
2020/08/14 10:53:49;;;;;;;0.6;0.4;;;;;;;25.48;61.58789;937.9324;;;;
2020/08/14 10:56:18;;;;;;;0.2;0.2;;;;;;;25.75;60.52637;937.8801;;;;
2020/08/14 10:58:43;;;;;;;0.7;0.4;;;;;;;25.96;62.30469;937.8416;;;;
2020/08/14 11:01:08;;;;;;;0.4;0.2;;;;;;;26.11;61.02441;937.8406;;;;
2020/08/14 11:03:33;;;;;;;1.7;0.7;;;;;;;26.42;58.54688;937.8681;;;;
2020/08/14 11:06:05;;;;;;;0.3;0.3;;;;;;;26.01;57.07324;937.8739;;;;
2020/08/14 11:08:30;;;;;;;0.3;0.2;;;;;;;26.47;57.32129;937.8161;;;;
2020/08/14 11:10:55;;;;;;;4.7;0.7;;;;;;;26.5;58.01172;937.8203;;;;
2020/08/14 11:13:20;;;;;;;0.2;0.2;;;;;;;26.7;56.94727;937.8148;;;;
2020/08/14 11:15:55;;;;;;;4.1;0.8;;;;;;;26.69;54.51855;937.7834;;;;
2020/08/14 11:18:20;;;;;;;0.8;0.6;;;;;;;26.81;54.85352;937.8086;;;;
2020/08/14 11:20:47;;;;;;;0.7;0.7;;;;;;;26.61;58.4873;937.8064;;;;
2020/08/14 11:23:12;;;;;;;0.5;0.5;;;;;;;27.39;56.01465;937.787;;;;
2020/08/14 11:25:49;;;;;;;0.5;0.2;;;;;;;27.79;55.70996;937.776;;;;
2020/08/14 11:28:14;;;;;;;0.3;0.3;;;;;;;27.99;54.28418;937.7876;;;;
2020/08/14 11:30:44;;;;;;;0.2;0.1;;;;;;;28.21;54.00293;937.712;;;;
2020/08/14 11:33:09;;;;;;;0.7;0.2;;;;;;;28.39;52.59668;937.736;;;;
2020/08/14 11:35:35;;;;;;;2;0.8;;;;;;;28.73;51.625;937.7182;;;;
2020/08/14 11:38:00;;;;;;;0.4;0.3;;;;;;;28.51;50.50488;937.7202;;;;
2020/08/14 11:40:29;;;;;;;2.3;0.4;;;;;;;28.67;51.55859;937.6099;;;;
2020/08/14 11:42:54;;;;;;;0.5;0.5;;;;;;;28.3;53.08594;937.6537;;;;
2020/08/14 11:45:29;;;;;;;0.3;0.2;;;;;;;27.83;53.23145;937.6298;;;;
2020/08/14 11:47:55;;;;;;;1.3;0.5;;;;;;;27.37;53.10645;937.6316;;;;
2020/08/14 11:50:25;;;;;;;0.6;0.5;;;;;;;26.86;54.97754;937.589;;;;
2020/08/14 11:52:50;;;;;;;0.7;0.4;;;;;;;26.57;55.64063;937.6613;;;;
2020/08/14 11:55:19;;;;;;;0.7;0.3;;;;;;;26.18;56.47949;937.6002;;;;
2020/08/14 11:57:44;;;;;;;0.6;0.6;;;;;;;26.07;57.0459;937.6158;;;;
2020/08/14 12:00:11;;;;;;;0.1;0.1;;;;;;;25.79;57.35254;937.5969;;;;
2020/08/14 12:02:39;;;;;;;0.5;0.4;;;;;;;25.5;58.78027;937.6238;;;;
2020/08/14 12:05:04;;;;;;;0.7;0.6;;;;;;;25.19;59.64844;937.5917;;;;
2020/08/14 12:07:29;;;;;;;0.2;0.2;;;;;;;25.06;59.37109;937.5671;;;;
2020/08/14 12:09:54;;;;;;;0.5;0.2;;;;;;;24.98;59.4668;937.6272;;;;
2020/08/14 12:12:22;;;;;;;0.5;0.5;;;;;;;25.01;59.86035;937.5604;;;;
2020/08/14 12:14:48;;;;;;;0.4;0.3;;;;;;;24.75;60.50879;937.5972;;;;
2020/08/14 12:17:15;;;;;;;0.3;0.2;;;;;;;24.52;61.46875;937.6318;;;;
2020/08/14 12:19:40;;;;;;;1.2;0.4;;;;;;;24.47;60.71875;937.5778;;;;
2020/08/14 12:22:09;;;;;;;1.4;0.1;;;;;;;24.4;61.03809;937.5386;;;;
2020/08/14 12:24:35;;;;;;;1.2;0.5;;;;;;;24.41;61.70117;937.5663;;;;
2020/08/14 12:27:02;;;;;;;0.4;0.2;;;;;;;24.46;62.25098;937.5744;;;;
2020/08/14 12:29:27;;;;;;;0.8;0.3;;;;;;;24.44;62.90625;937.5369;;;;
2020/08/14 12:31:53;;;;;;;0.2;0.2;;;;;;;24.45;62.02441;937.5658;;;;
2020/08/14 12:34:19;;;;;;;0.5;0.3;;;;;;;24.27;62.58789;937.5694;;;;
2020/08/14 12:36:47;;;;;;;0.3;0.3;;;;;;;24.34;63.37598;937.5642;;;;
2020/08/14 12:39:12;;;;;;;0.9;0.4;;;;;;;24.36;63.42676;937.5784;;;;
2020/08/14 12:41:38;;;;;;;0.5;0.3;;;;;;;24.24;62.90234;937.5356;;;;
2020/08/14 12:44:03;;;;;;;1.3;0.4;;;;;;;24.31;62.97168;937.5328;;;;
2020/08/14 12:46:34;;;;;;;0.9;0.4;;;;;;;24.13;63.8291;937.4988;;;;
2020/08/14 12:48:59;;;;;;;0.6;0.5;;;;;;;24.13;64.38281;937.5255;;;;
2020/08/14 12:51:24;;;;;;;0.6;0.5;;;;;;;24.02;65.08398;937.4903;;;;
2020/08/14 12:53:49;;;;;;;0.7;0.6;;;;;;;24.1;64.86133;937.425;;;;
2020/08/14 12:56:14;;;;;;;0.1;0.1;;;;;;;24.28;64.29785;937.4525;;;;
2020/08/14 12:58:43;;;;;;;0.3;0.2;;;;;;;24.3;64.84375;937.459;;;;
2020/08/14 13:01:13;;;;;;;1.1;0.5;;;;;;;24.46;65.16113;937.5115;;;;
2020/08/14 13:03:39;;;;;;;0.7;0.5;;;;;;;24.6;65.00488;937.4678;;;;
2020/08/14 13:06:08;;;;;;;0.3;0.3;;;;;;;24.51;68.74121;937.4408;;;;
2020/08/14 13:08:33;;;;;;;0.5;0.3;;;;;;;24.56;68.12305;937.4465;;;;
2020/08/14 13:10:58;;;;;;;0.3;0.3;;;;;;;24.5;66.09766;937.382;;;;
2020/08/14 13:13:23;;;;;;;0.4;0.3;;;;;;;24.69;65.76074;937.3254;;;;
2020/08/14 13:15:55;;;;;;;0.8;0.6;;;;;;;24.81;65.09277;937.3502;;;;
2020/08/14 13:18:20;;;;;;;0.9;0.4;;;;;;;24.91;63.5625;937.3349;;;;
2020/08/14 13:20:49;;;;;;;0.4;0.3;;;;;;;24.89;65.01074;937.3137;;;;
2020/08/14 13:23:19;;;;;;;0.9;0.5;;;;;;;24.73;64.83398;937.3358;;;;
2020/08/14 13:25:49;;;;;;;0.2;0.1;;;;;;;24.69;62.23535;937.3336;;;;
2020/08/14 13:28:14;;;;;;;0.7;0.4;;;;;;;24.37;63.59277;937.3028;;;;
2020/08/14 13:30:45;;;;;;;0.7;0.4;;;;;;;24.34;63.25781;937.2521;;;;
2020/08/14 13:33:11;;;;;;;0.4;0.2;;;;;;;24.36;64.88672;937.1905;;;;
2020/08/14 13:35:36;;;;;;;0.8;0.3;;;;;;;24.45;63.50879;937.1961;;;;
2020/08/14 13:38:06;;;;;;;1.9;1;;;;;;;24.74;63.71484;937.2239;;;;
2020/08/14 13:40:40;;;;;;;5.2;0.3;;;;;;;24.4;65.37598;937.2095;;;;
2020/08/14 13:43:06;;;;;;;0.3;0.3;;;;;;;24.53;63.75488;937.1609;;;;
2020/08/14 13:45:34;;;;;;;0.5;0.3;;;;;;;24.57;66.2959;937.1914;;;;
2020/08/14 13:47:59;;;;;;;1.6;0.5;;;;;;;24.51;65.75781;937.1404;;;;
2020/08/14 13:50:24;;;;;;;0.6;0.5;;;;;;;24.39;63.14746;937.079;;;;
2020/08/14 13:52:49;;;;;;;0.6;0.4;;;;;;;24.28;65.34766;937.1064;;;;
2020/08/14 13:55:14;;;;;;;13.6;1.2;;;;;;;24.22;65.98633;937.1015;;;;
2020/08/14 13:57:40;;;;;;;0.8;0.4;;;;;;;23.73;66.52441;937.0969;;;;
2020/08/14 14:00:15;;;;;;;1.3;0.4;;;;;;;23.49;67.71191;937.1024;;;;
2020/08/14 14:02:44;;;;;;;1.7;0.3;;;;;;;23.52;68.13965;937.0857;;;;
2020/08/14 14:05:11;;;;;;;0.2;0.2;;;;;;;23.57;67.24219;937.0659;;;;
2020/08/14 14:07:36;;;;;;;0.8;0.5;;;;;;;23.63;68.09766;937.1027;;;;
2020/08/14 14:10:01;;;;;;;0.4;0.4;;;;;;;23.67;67.18652;937.1181;;;;
2020/08/14 14:12:26;;;;;;;4.4;0.8;;;;;;;23.67;67.43359;937.1163;;;;
2020/08/14 14:14:51;;;;;;;0.4;0.2;;;;;;;23.56;68.8877;937.1621;;;;
2020/08/14 14:17:19;;;;;;;0.9;0.7;;;;;;;23.35;69.31348;937.1166;;;;
2020/08/14 14:19:44;;;;;;;1;0.4;;;;;;;23.16;70.76367;937.1116;;;;
2020/08/14 14:22:09;;;;;;;0.5;0.4;;;;;;;22.84;70.10156;937.1152;;;;
2020/08/14 14:24:34;;;;;;;0.9;0.5;;;;;;;22.88;72.51758;937.0662;;;;
2020/08/14 14:27:00;;;;;;;0.4;0.4;;;;;;;22.78;72.96973;937.0748;;;;
2020/08/14 14:29:25;;;;;;;0.8;0.3;;;;;;;22.79;72.83008;937.0792;;;;
2020/08/14 14:31:50;;;;;;;0.9;0.6;;;;;;;22.83;73.4834;937.0351;;;;
2020/08/14 14:34:15;;;;;;;0.2;0.2;;;;;;;22.84;74.72949;937.0477;;;;
2020/08/14 14:36:44;;;;;;;0.8;0.6;;;;;;;22.92;73.72168;937.0347;;;;
2020/08/14 14:39:09;;;;;;;0.2;0.2;;;;;;;22.94;74.53418;937.0341;;;;
2020/08/14 14:41:38;;;;;;;0.9;0.6;;;;;;;22.97;73.9873;937.0075;;;;
2020/08/14 14:44:03;;;;;;;0.7;0.5;;;;;;;23.01;74.51172;937.0602;;;;
2020/08/14 14:46:32;;;;;;;0.3;0.3;;;;;;;22.83;72.34277;937.1149;;;;
2020/08/14 14:48:58;;;;;;;0.3;0.2;;;;;;;22.81;71.75293;937.0907;;;;
2020/08/14 14:51:24;;;;;;;0.8;0.3;;;;;;;22.84;73.00195;937.0836;;;;
2020/08/14 14:53:49;;;;;;;0.3;0.3;;;;;;;22.84;71.94531;937.056;;;;
2020/08/14 14:56:14;;;;;;;0.9;0.4;;;;;;;22.92;71.9834;937.0314;;;;
2020/08/14 14:58:39;;;;;;;0.3;0.3;;;;;;;22.7;72.25293;937.0817;;;;
2020/08/14 15:01:08;;;;;;;0.9;0.5;;;;;;;22.67;71.60156;937.0466;;;;
2020/08/14 15:03:33;;;;;;;0.7;0.3;;;;;;;22.6;72.68164;937.0636;;;;
2020/08/14 15:05:58;;;;;;;3.4;0.8;;;;;;;22.66;72.03418;937.0404;;;;
2020/08/14 15:08:23;;;;;;;5.1;0.4;;;;;;;22.56;71.58398;937.0098;;;;
2020/08/14 15:10:50;;;;;;;0.7;0.6;;;;;;;22.54;73.58789;937.0245;;;;
2020/08/14 15:13:15;;;;;;;0.8;0.5;;;;;;;22.75;73.63379;937.0012;;;;
2020/08/14 15:15:51;;;;;;;0.8;0.3;;;;;;;22.84;73.08496;937.0038;;;;
2020/08/14 15:18:16;;;;;;;0.5;0.4;;;;;;;22.93;72.95898;936.9637;;;;
2020/08/14 15:20:50;;;;;;;2.3;0.9;;;;;;;22.97;73.21191;937.0148;;;;
2020/08/14 15:23:15;;;;;;;0.2;0.2;;;;;;;22.98;72.69824;937.0364;;;;
2020/08/14 15:25:41;;;;;;;1;0.9;;;;;;;23.18;72.9541;937.03;;;;
2020/08/14 15:28:06;;;;;;;0.5;0.3;;;;;;;23.07;74.73242;937.0923;;;;
2020/08/14 15:30:32;;;;;;;1.5;0.5;;;;;;;23.24;74.39648;937.163;;;;
2020/08/14 15:32:57;;;;;;;0.7;0.4;;;;;;;23.3;74.95996;937.1919;;;;